sensor_id;sensor_type;location;lat;lon;timestamp;P1;durP1;ratioP1;P2;durP2;ratioP2
14603;SDS011;7388;51.078;13.740;2023-06-14T00:01:46;3.17;;;2.80;;
14603;SDS011;7388;51.078;13.740;2023-06-14T00:04:12;6.03;;;3.20;;
14603;SDS011;7388;51.078;13.740;2023-06-14T00:06:38;3.55;;;3.25;;
14603;SDS011;7388;51.078;13.740;2023-06-14T00:09:04;4.22;;;3.50;;
14603;SDS011;7388;51.078;13.740;2023-06-14T00:11:30;5.00;;;3.47;;
14603;SDS011;7388;51.078;13.740;2023-06-14T00:13:56;3.50;;;3.20;;
14603;SDS011;7388;51.078;13.740;2023-06-14T00:16:22;3.72;;;3.35;;
14603;SDS011;7388;51.078;13.740;2023-06-14T00:18:49;4.40;;;4.00;;
14603;SDS011;7388;51.078;13.740;2023-06-14T00:21:17;6.15;;;4.20;;
14603;SDS011;7388;51.078;13.740;2023-06-14T00:23:44;5.90;;;4.00;;
14603;SDS011;7388;51.078;13.740;2023-06-14T00:26:10;4.77;;;3.60;;
14603;SDS011;7388;51.078;13.740;2023-06-14T00:28:35;3.80;;;3.40;;
14603;SDS011;7388;51.078;13.740;2023-06-14T00:31:01;5.13;;;4.13;;
14603;SDS011;7388;51.078;13.740;2023-06-14T00:33:27;7.78;;;3.67;;
14603;SDS011;7388;51.078;13.740;2023-06-14T00:35:53;4.10;;;3.70;;
14603;SDS011;7388;51.078;13.740;2023-06-14T00:38:19;4.77;;;3.40;;
14603;SDS011;7388;51.078;13.740;2023-06-14T00:40:47;6.15;;;3.97;;
14603;SDS011;7388;51.078;13.740;2023-06-14T00:43:12;4.45;;;3.60;;
14603;SDS011;7388;51.078;13.740;2023-06-14T00:45:38;4.73;;;3.90;;
14603;SDS011;7388;51.078;13.740;2023-06-14T00:48:04;5.53;;;3.40;;
14603;SDS011;7388;51.078;13.740;2023-06-14T00:50:32;4.95;;;3.95;;
14603;SDS011;7388;51.078;13.740;2023-06-14T00:53:02;5.80;;;4.03;;
14603;SDS011;7388;51.078;13.740;2023-06-14T00:55:29;4.65;;;4.10;;
14603;SDS011;7388;51.078;13.740;2023-06-14T00:57:55;7.15;;;3.95;;
14603;SDS011;7388;51.078;13.740;2023-06-14T01:00:21;7.95;;;4.25;;
14603;SDS011;7388;51.078;13.740;2023-06-14T01:02:47;4.95;;;3.60;;
14603;SDS011;7388;51.078;13.740;2023-06-14T01:05:14;4.55;;;3.92;;
14603;SDS011;7388;51.078;13.740;2023-06-14T01:10:56;5.35;;;3.63;;
14603;SDS011;7388;51.078;13.740;2023-06-14T01:13:37;6.90;;;3.40;;
14603;SDS011;7388;51.078;13.740;2023-06-14T01:16:07;5.65;;;3.97;;
14603;SDS011;7388;51.078;13.740;2023-06-14T01:18:34;5.40;;;4.40;;
14603;SDS011;7388;51.078;13.740;2023-06-14T01:21:00;5.05;;;3.80;;
14603;SDS011;7388;51.078;13.740;2023-06-14T01:23:30;4.13;;;3.83;;
14603;SDS011;7388;51.078;13.740;2023-06-14T01:25:58;5.55;;;4.35;;
14603;SDS011;7388;51.078;13.740;2023-06-14T01:28:25;4.47;;;3.70;;
14603;SDS011;7388;51.078;13.740;2023-06-14T01:30:57;5.32;;;3.63;;
14603;SDS011;7388;51.078;13.740;2023-06-14T01:33:28;5.40;;;4.05;;
14603;SDS011;7388;51.078;13.740;2023-06-14T01:35:54;5.72;;;4.57;;
14603;SDS011;7388;51.078;13.740;2023-06-14T01:38:27;3.92;;;3.45;;
14603;SDS011;7388;51.078;13.740;2023-06-14T01:40:55;4.90;;;3.58;;
14603;SDS011;7388;51.078;13.740;2023-06-14T01:43:23;7.28;;;4.10;;
14603;SDS011;7388;51.078;13.740;2023-06-14T01:45:49;10.40;;;3.85;;
14603;SDS011;7388;51.078;13.740;2023-06-14T01:48:19;5.95;;;4.30;;
14603;SDS011;7388;51.078;13.740;2023-06-14T01:50:45;3.53;;;3.22;;
14603;SDS011;7388;51.078;13.740;2023-06-14T01:53:12;5.38;;;3.80;;
14603;SDS011;7388;51.078;13.740;2023-06-14T01:55:38;4.33;;;3.93;;
14603;SDS011;7388;51.078;13.740;2023-06-14T01:58:08;4.10;;;3.70;;
14603;SDS011;7388;51.078;13.740;2023-06-14T02:00:34;5.63;;;3.90;;
14603;SDS011;7388;51.078;13.740;2023-06-14T02:03:00;5.30;;;4.40;;
14603;SDS011;7388;51.078;13.740;2023-06-14T02:05:27;6.57;;;4.60;;
14603;SDS011;7388;51.078;13.740;2023-06-14T02:07:53;6.00;;;3.80;;
14603;SDS011;7388;51.078;13.740;2023-06-14T02:10:19;5.23;;;4.73;;
14603;SDS011;7388;51.078;13.740;2023-06-14T02:12:45;4.38;;;3.85;;
14603;SDS011;7388;51.078;13.740;2023-06-14T02:15:11;5.10;;;4.60;;
14603;SDS011;7388;51.078;13.740;2023-06-14T02:17:44;4.45;;;4.05;;
14603;SDS011;7388;51.078;13.740;2023-06-14T02:20:12;4.20;;;3.80;;
14603;SDS011;7388;51.078;13.740;2023-06-14T02:22:39;3.95;;;3.65;;
14603;SDS011;7388;51.078;13.740;2023-06-14T02:25:05;6.68;;;4.82;;
14603;SDS011;7388;51.078;13.740;2023-06-14T02:27:31;6.00;;;3.65;;
14603;SDS011;7388;51.078;13.740;2023-06-14T02:29:58;3.97;;;3.63;;
14603;SDS011;7388;51.078;13.740;2023-06-14T02:32:23;4.22;;;3.80;;
14603;SDS011;7388;51.078;13.740;2023-06-14T02:34:52;5.25;;;4.70;;
14603;SDS011;7388;51.078;13.740;2023-06-14T02:37:18;3.85;;;3.30;;
14603;SDS011;7388;51.078;13.740;2023-06-14T02:39:44;5.03;;;4.53;;
14603;SDS011;7388;51.078;13.740;2023-06-14T02:42:10;4.20;;;3.90;;
14603;SDS011;7388;51.078;13.740;2023-06-14T02:44:36;4.07;;;3.60;;
14603;SDS011;7388;51.078;13.740;2023-06-14T02:47:02;5.30;;;4.73;;
14603;SDS011;7388;51.078;13.740;2023-06-14T02:49:29;6.75;;;5.10;;
14603;SDS011;7388;51.078;13.740;2023-06-14T02:51:54;4.37;;;3.97;;
14603;SDS011;7388;51.078;13.740;2023-06-14T02:54:21;4.78;;;4.20;;
14603;SDS011;7388;51.078;13.740;2023-06-14T02:56:46;7.73;;;5.00;;
14603;SDS011;7388;51.078;13.740;2023-06-14T02:59:12;6.10;;;5.27;;
14603;SDS011;7388;51.078;13.740;2023-06-14T03:01:39;8.88;;;4.13;;
14603;SDS011;7388;51.078;13.740;2023-06-14T03:04:06;4.65;;;4.10;;
14603;SDS011;7388;51.078;13.740;2023-06-14T03:06:33;5.30;;;4.63;;
14603;SDS011;7388;51.078;13.740;2023-06-14T03:09:01;5.63;;;5.10;;
14603;SDS011;7388;51.078;13.740;2023-06-14T03:11:31;7.25;;;4.15;;
14603;SDS011;7388;51.078;13.740;2023-06-14T03:13:57;9.82;;;4.75;;
14603;SDS011;7388;51.078;13.740;2023-06-14T03:16:24;8.73;;;4.32;;
14603;SDS011;7388;51.078;13.740;2023-06-14T03:18:52;5.27;;;4.73;;
14603;SDS011;7388;51.078;13.740;2023-06-14T03:21:21;5.70;;;4.55;;
14603;SDS011;7388;51.078;13.740;2023-06-14T03:23:47;6.55;;;5.75;;
14603;SDS011;7388;51.078;13.740;2023-06-14T03:26:14;5.53;;;4.60;;
14603;SDS011;7388;51.078;13.740;2023-06-14T03:28:43;4.78;;;4.25;;
14603;SDS011;7388;51.078;13.740;2023-06-14T03:31:10;7.07;;;4.43;;
14603;SDS011;7388;51.078;13.740;2023-06-14T03:33:36;5.78;;;4.53;;
14603;SDS011;7388;51.078;13.740;2023-06-14T03:36:02;6.07;;;5.50;;
14603;SDS011;7388;51.078;13.740;2023-06-14T03:38:28;5.68;;;5.03;;
14603;SDS011;7388;51.078;13.740;2023-06-14T03:40:55;5.45;;;4.88;;
14603;SDS011;7388;51.078;13.740;2023-06-14T03:43:20;6.43;;;5.40;;
14603;SDS011;7388;51.078;13.740;2023-06-14T03:45:46;6.13;;;5.63;;
14603;SDS011;7388;51.078;13.740;2023-06-14T03:48:12;4.50;;;4.10;;
14603;SDS011;7388;51.078;13.740;2023-06-14T03:50:38;5.43;;;4.93;;
14603;SDS011;7388;51.078;13.740;2023-06-14T03:53:04;4.78;;;4.38;;
14603;SDS011;7388;51.078;13.740;2023-06-14T03:55:30;5.75;;;5.15;;
14603;SDS011;7388;51.078;13.740;2023-06-14T03:57:56;5.47;;;4.93;;
14603;SDS011;7388;51.078;13.740;2023-06-14T04:00:22;5.65;;;5.00;;
14603;SDS011;7388;51.078;13.740;2023-06-14T04:02:48;6.57;;;5.23;;
14603;SDS011;7388;51.078;13.740;2023-06-14T04:05:14;7.13;;;4.87;;
14603;SDS011;7388;51.078;13.740;2023-06-14T04:07:41;5.75;;;5.05;;
14603;SDS011;7388;51.078;13.740;2023-06-14T04:10:10;5.45;;;4.95;;
14603;SDS011;7388;51.078;13.740;2023-06-14T04:12:38;5.30;;;4.80;;
14603;SDS011;7388;51.078;13.740;2023-06-14T04:15:04;5.23;;;4.70;;
14603;SDS011;7388;51.078;13.740;2023-06-14T04:17:31;6.22;;;4.97;;
14603;SDS011;7388;51.078;13.740;2023-06-14T04:19:58;4.88;;;4.38;;
14603;SDS011;7388;51.078;13.740;2023-06-14T04:22:25;6.75;;;6.15;;
14603;SDS011;7388;51.078;13.740;2023-06-14T04:24:54;5.68;;;5.13;;
14603;SDS011;7388;51.078;13.740;2023-06-14T04:27:21;9.38;;;7.00;;
14603;SDS011;7388;51.078;13.740;2023-06-14T04:29:50;6.20;;;5.70;;
14603;SDS011;7388;51.078;13.740;2023-06-14T04:32:25;9.60;;;5.95;;
14603;SDS011;7388;51.078;13.740;2023-06-14T04:34:54;5.97;;;5.38;;
14603;SDS011;7388;51.078;13.740;2023-06-14T04:37:21;6.43;;;5.60;;
14603;SDS011;7388;51.078;13.740;2023-06-14T04:39:50;5.75;;;5.25;;
14603;SDS011;7388;51.078;13.740;2023-06-14T04:42:16;8.07;;;6.60;;
14603;SDS011;7388;51.078;13.740;2023-06-14T04:44:45;5.53;;;5.03;;
14603;SDS011;7388;51.078;13.740;2023-06-14T04:47:12;6.55;;;5.90;;
14603;SDS011;7388;51.078;13.740;2023-06-14T04:49:39;6.10;;;5.50;;
14603;SDS011;7388;51.078;13.740;2023-06-14T04:52:06;6.30;;;5.25;;
14603;SDS011;7388;51.078;13.740;2023-06-14T04:54:32;5.90;;;5.38;;
14603;SDS011;7388;51.078;13.740;2023-06-14T04:56:59;5.90;;;5.40;;
14603;SDS011;7388;51.078;13.740;2023-06-14T04:59:24;8.60;;;6.23;;
14603;SDS011;7388;51.078;13.740;2023-06-14T05:01:50;8.10;;;6.30;;
14603;SDS011;7388;51.078;13.740;2023-06-14T05:04:17;10.43;;;6.00;;
14603;SDS011;7388;51.078;13.740;2023-06-14T05:06:43;8.38;;;7.40;;
14603;SDS011;7388;51.078;13.740;2023-06-14T05:09:15;12.70;;;7.30;;
14603;SDS011;7388;51.078;13.740;2023-06-14T05:11:42;9.75;;;6.72;;
14603;SDS011;7388;51.078;13.740;2023-06-14T05:14:09;7.05;;;6.35;;
14603;SDS011;7388;51.078;13.740;2023-06-14T05:16:35;8.43;;;6.50;;
14603;SDS011;7388;51.078;13.740;2023-06-14T05:19:02;8.13;;;6.38;;
14603;SDS011;7388;51.078;13.740;2023-06-14T05:21:29;8.52;;;7.15;;
14603;SDS011;7388;51.078;13.740;2023-06-14T05:23:55;7.47;;;6.75;;
14603;SDS011;7388;51.078;13.740;2023-06-14T05:26:21;9.20;;;7.20;;
14603;SDS011;7388;51.078;13.740;2023-06-14T05:28:50;6.88;;;6.18;;
14603;SDS011;7388;51.078;13.740;2023-06-14T05:31:17;9.05;;;7.10;;
14603;SDS011;7388;51.078;13.740;2023-06-14T05:33:43;7.13;;;5.87;;
14603;SDS011;7388;51.078;13.740;2023-06-14T05:36:09;7.87;;;7.07;;
14603;SDS011;7388;51.078;13.740;2023-06-14T05:38:35;10.30;;;6.20;;
14603;SDS011;7388;51.078;13.740;2023-06-14T05:41:01;9.60;;;6.90;;
14603;SDS011;7388;51.078;13.740;2023-06-14T05:43:27;8.98;;;6.88;;
14603;SDS011;7388;51.078;13.740;2023-06-14T05:45:52;6.83;;;6.23;;
14603;SDS011;7388;51.078;13.740;2023-06-14T05:48:18;7.27;;;6.57;;
14603;SDS011;7388;51.078;13.740;2023-06-14T05:50:44;6.78;;;6.18;;
14603;SDS011;7388;51.078;13.740;2023-06-14T05:53:10;6.97;;;6.10;;
14603;SDS011;7388;51.078;13.740;2023-06-14T05:55:36;7.23;;;5.47;;
14603;SDS011;7388;51.078;13.740;2023-06-14T05:58:01;6.83;;;6.10;;
14603;SDS011;7388;51.078;13.740;2023-06-14T06:00:27;7.82;;;6.28;;
14603;SDS011;7388;51.078;13.740;2023-06-14T06:02:53;13.73;;;7.20;;
14603;SDS011;7388;51.078;13.740;2023-06-14T06:05:22;6.75;;;6.13;;
14603;SDS011;7388;51.078;13.740;2023-06-14T06:07:47;7.27;;;6.60;;
14603;SDS011;7388;51.078;13.740;2023-06-14T06:10:14;6.25;;;5.75;;
14603;SDS011;7388;51.078;13.740;2023-06-14T06:12:41;6.10;;;5.20;;
14603;SDS011;7388;51.078;13.740;2023-06-14T06:15:07;9.00;;;6.05;;
14603;SDS011;7388;51.078;13.740;2023-06-14T06:17:37;10.68;;;6.85;;
14603;SDS011;7388;51.078;13.740;2023-06-14T06:20:03;9.80;;;6.53;;
14603;SDS011;7388;51.078;13.740;2023-06-14T06:22:31;7.40;;;6.43;;
14603;SDS011;7388;51.078;13.740;2023-06-14T06:24:56;9.27;;;7.00;;
14603;SDS011;7388;51.078;13.740;2023-06-14T06:27:22;6.87;;;6.17;;
14603;SDS011;7388;51.078;13.740;2023-06-14T06:29:48;6.63;;;5.50;;
14603;SDS011;7388;51.078;13.740;2023-06-14T06:32:17;7.63;;;6.20;;
14603;SDS011;7388;51.078;13.740;2023-06-14T06:34:43;8.18;;;6.13;;
14603;SDS011;7388;51.078;13.740;2023-06-14T06:37:08;12.80;;;6.17;;
14603;SDS011;7388;51.078;13.740;2023-06-14T06:39:34;7.17;;;6.23;;
14603;SDS011;7388;51.078;13.740;2023-06-14T06:42:00;6.00;;;5.00;;
14603;SDS011;7388;51.078;13.740;2023-06-14T06:44:26;6.20;;;5.60;;
14603;SDS011;7388;51.078;13.740;2023-06-14T06:46:51;10.00;;;6.30;;
14603;SDS011;7388;51.078;13.740;2023-06-14T06:49:17;6.80;;;6.20;;
14603;SDS011;7388;51.078;13.740;2023-06-14T06:51:43;5.30;;;4.10;;
14603;SDS011;7388;51.078;13.740;2023-06-14T06:54:23;5.57;;;5.05;;
14603;SDS011;7388;51.078;13.740;2023-06-14T06:56:49;6.28;;;5.68;;
14603;SDS011;7388;51.078;13.740;2023-06-14T06:59:15;7.90;;;5.30;;
14603;SDS011;7388;51.078;13.740;2023-06-14T07:01:41;5.45;;;4.60;;
14603;SDS011;7388;51.078;13.740;2023-06-14T07:04:07;6.90;;;5.20;;
14603;SDS011;7388;51.078;13.740;2023-06-14T07:06:33;6.40;;;5.63;;
14603;SDS011;7388;51.078;13.740;2023-06-14T07:08:59;6.30;;;5.63;;
14603;SDS011;7388;51.078;13.740;2023-06-14T07:11:26;6.70;;;6.00;;
14603;SDS011;7388;51.078;13.740;2023-06-14T07:13:52;6.33;;;5.77;;
14603;SDS011;7388;51.078;13.740;2023-06-14T07:16:18;7.03;;;6.43;;
14603;SDS011;7388;51.078;13.740;2023-06-14T07:18:44;5.77;;;5.27;;
14603;SDS011;7388;51.078;13.740;2023-06-14T07:21:09;5.33;;;4.77;;
14603;SDS011;7388;51.078;13.740;2023-06-14T07:23:35;4.73;;;4.07;;
14603;SDS011;7388;51.078;13.740;2023-06-14T07:26:01;5.20;;;4.77;;
14603;SDS011;7388;51.078;13.740;2023-06-14T07:28:27;6.17;;;5.40;;
14603;SDS011;7388;51.078;13.740;2023-06-14T07:30:52;6.80;;;5.37;;
14603;SDS011;7388;51.078;13.740;2023-06-14T07:33:18;5.23;;;4.83;;
14603;SDS011;7388;51.078;13.740;2023-06-14T07:35:44;6.50;;;5.57;;
14603;SDS011;7388;51.078;13.740;2023-06-14T07:38:11;5.33;;;4.83;;
14603;SDS011;7388;51.078;13.740;2023-06-14T07:40:36;6.37;;;4.70;;
14603;SDS011;7388;51.078;13.740;2023-06-14T07:43:02;5.17;;;4.67;;
14603;SDS011;7388;51.078;13.740;2023-06-14T07:45:28;4.50;;;4.10;;
14603;SDS011;7388;51.078;13.740;2023-06-14T07:47:54;5.33;;;4.83;;
14603;SDS011;7388;51.078;13.740;2023-06-14T07:50:20;4.77;;;4.27;;
14603;SDS011;7388;51.078;13.740;2023-06-14T07:52:46;4.80;;;4.13;;
14603;SDS011;7388;51.078;13.740;2023-06-14T07:55:13;5.00;;;3.97;;
14603;SDS011;7388;51.078;13.740;2023-06-14T07:57:40;4.90;;;3.67;;
14603;SDS011;7388;51.078;13.740;2023-06-14T08:00:06;4.77;;;4.30;;
14603;SDS011;7388;51.078;13.740;2023-06-14T08:02:32;4.20;;;3.77;;
14603;SDS011;7388;51.078;13.740;2023-06-14T08:04:58;5.03;;;4.03;;
14603;SDS011;7388;51.078;13.740;2023-06-14T08:07:24;8.07;;;4.20;;
14603;SDS011;7388;51.078;13.740;2023-06-14T08:09:49;5.03;;;4.57;;
14603;SDS011;7388;51.078;13.740;2023-06-14T08:12:15;3.87;;;3.47;;
14603;SDS011;7388;51.078;13.740;2023-06-14T08:14:41;3.87;;;3.57;;
14603;SDS011;7388;51.078;13.740;2023-06-14T08:17:07;4.00;;;3.60;;
14603;SDS011;7388;51.078;13.740;2023-06-14T08:19:33;4.50;;;3.47;;
14603;SDS011;7388;51.078;13.740;2023-06-14T08:22:01;3.60;;;3.10;;
14603;SDS011;7388;51.078;13.740;2023-06-14T08:24:27;3.80;;;3.40;;
14603;SDS011;7388;51.078;13.740;2023-06-14T08:26:53;3.23;;;2.93;;
14603;SDS011;7388;51.078;13.740;2023-06-14T08:29:19;4.50;;;3.00;;
14603;SDS011;7388;51.078;13.740;2023-06-14T08:31:45;3.20;;;2.33;;
14603;SDS011;7388;51.078;13.740;2023-06-14T08:34:11;4.50;;;3.30;;
14603;SDS011;7388;51.078;13.740;2023-06-14T08:36:37;6.70;;;3.43;;
14603;SDS011;7388;51.078;13.740;2023-06-14T08:39:02;4.97;;;2.93;;
14603;SDS011;7388;51.078;13.740;2023-06-14T08:41:28;3.00;;;2.70;;
14603;SDS011;7388;51.078;13.740;2023-06-14T08:43:54;4.77;;;3.07;;
14603;SDS011;7388;51.078;13.740;2023-06-14T08:46:21;3.93;;;2.90;;
14603;SDS011;7388;51.078;13.740;2023-06-14T08:48:52;3.50;;;3.13;;
14603;SDS011;7388;51.078;13.740;2023-06-14T08:51:24;4.10;;;3.30;;
14603;SDS011;7388;51.078;13.740;2023-06-14T08:53:53;2.97;;;2.70;;
14603;SDS011;7388;51.078;13.740;2023-06-14T08:56:26;3.80;;;3.50;;
14603;SDS011;7388;51.078;13.740;2023-06-14T08:58:54;3.13;;;2.80;;
14603;SDS011;7388;51.078;13.740;2023-06-14T09:01:21;5.90;;;3.50;;
14603;SDS011;7388;51.078;13.740;2023-06-14T09:03:48;4.60;;;4.10;;
14603;SDS011;7388;51.078;13.740;2023-06-14T09:06:15;4.37;;;3.70;;
14603;SDS011;7388;51.078;13.740;2023-06-14T09:08:45;4.03;;;3.67;;
14603;SDS011;7388;51.078;13.740;2023-06-14T09:11:14;7.13;;;4.27;;
14603;SDS011;7388;51.078;13.740;2023-06-14T09:13:41;3.70;;;3.30;;
14603;SDS011;7388;51.078;13.740;2023-06-14T09:16:08;4.90;;;3.47;;
14603;SDS011;7388;51.078;13.740;2023-06-14T09:18:37;4.20;;;3.80;;
14603;SDS011;7388;51.078;13.740;2023-06-14T09:21:12;6.70;;;4.97;;
14603;SDS011;7388;51.078;13.740;2023-06-14T09:23:40;4.33;;;3.50;;
14603;SDS011;7388;51.078;13.740;2023-06-14T09:26:10;3.97;;;3.67;;
14603;SDS011;7388;51.078;13.740;2023-06-14T09:28:41;5.17;;;4.23;;
14603;SDS011;7388;51.078;13.740;2023-06-14T09:31:08;5.47;;;4.97;;
14603;SDS011;7388;51.078;13.740;2023-06-14T09:33:35;4.87;;;4.43;;
14603;SDS011;7388;51.078;13.740;2023-06-14T09:36:01;5.00;;;4.50;;
14603;SDS011;7388;51.078;13.740;2023-06-14T09:38:26;8.60;;;4.67;;
14603;SDS011;7388;51.078;13.740;2023-06-14T09:40:52;4.40;;;4.00;;
14603;SDS011;7388;51.078;13.740;2023-06-14T09:43:21;8.57;;;4.10;;
14603;SDS011;7388;51.078;13.740;2023-06-14T09:45:47;4.33;;;3.93;;
14603;SDS011;7388;51.078;13.740;2023-06-14T09:48:13;4.57;;;3.93;;
14603;SDS011;7388;51.078;13.740;2023-06-14T09:50:44;5.77;;;3.40;;
14603;SDS011;7388;51.078;13.740;2023-06-14T09:53:12;4.20;;;3.50;;
14603;SDS011;7388;51.078;13.740;2023-06-14T09:55:40;5.10;;;4.10;;
14603;SDS011;7388;51.078;13.740;2023-06-14T09:58:07;4.10;;;3.70;;
14603;SDS011;7388;51.078;13.740;2023-06-14T10:00:33;3.80;;;3.50;;
14603;SDS011;7388;51.078;13.740;2023-06-14T10:03:00;4.20;;;3.80;;
14603;SDS011;7388;51.078;13.740;2023-06-14T10:05:34;4.13;;;3.83;;
14603;SDS011;7388;51.078;13.740;2023-06-14T10:08:07;3.90;;;3.60;;
14603;SDS011;7388;51.078;13.740;2023-06-14T10:10:34;3.97;;;3.60;;
14603;SDS011;7388;51.078;13.740;2023-06-14T10:13:00;5.23;;;4.23;;
14603;SDS011;7388;51.078;13.740;2023-06-14T10:15:41;3.67;;;3.30;;
14603;SDS011;7388;51.078;13.740;2023-06-14T10:18:33;5.63;;;3.87;;
14603;SDS011;7388;51.078;13.740;2023-06-14T10:21:23;5.50;;;3.80;;
14603;SDS011;7388;51.078;13.740;2023-06-14T10:24:14;4.30;;;3.80;;
14603;SDS011;7388;51.078;13.740;2023-06-14T10:26:54;4.57;;;3.70;;
14603;SDS011;7388;51.078;13.740;2023-06-14T10:29:22;5.93;;;3.77;;
14603;SDS011;7388;51.078;13.740;2023-06-14T10:31:48;3.90;;;3.40;;
14603;SDS011;7388;51.078;13.740;2023-06-14T10:34:25;6.20;;;3.93;;
14603;SDS011;7388;51.078;13.740;2023-06-14T10:37:01;4.67;;;4.27;;
14603;SDS011;7388;51.078;13.740;2023-06-14T10:39:32;5.03;;;3.60;;
14603;SDS011;7388;51.078;13.740;2023-06-14T10:42:03;3.63;;;2.90;;
14603;SDS011;7388;51.078;13.740;2023-06-14T10:47:00;3.80;;;3.40;;
14603;SDS011;7388;51.078;13.740;2023-06-14T10:49:45;4.57;;;3.90;;
14603;SDS011;7388;51.078;13.740;2023-06-14T10:52:16;5.40;;;4.20;;
14603;SDS011;7388;51.078;13.740;2023-06-14T10:57:31;4.33;;;3.93;;
14603;SDS011;7388;51.078;13.740;2023-06-14T11:00:02;6.20;;;4.20;;
14603;SDS011;7388;51.078;13.740;2023-06-14T11:02:51;5.67;;;4.33;;
14603;SDS011;7388;51.078;13.740;2023-06-14T11:11:00;8.30;;;3.90;;
14603;SDS011;7388;51.078;13.740;2023-06-14T11:13:30;4.20;;;3.80;;
14603;SDS011;7388;51.078;13.740;2023-06-14T11:15:56;5.43;;;4.20;;
14603;SDS011;7388;51.078;13.740;2023-06-14T11:18:23;5.27;;;4.77;;
14603;SDS011;7388;51.078;13.740;2023-06-14T11:20:50;5.00;;;4.60;;
14603;SDS011;7388;51.078;13.740;2023-06-14T11:23:15;4.50;;;4.00;;
14603;SDS011;7388;51.078;13.740;2023-06-14T11:25:41;5.30;;;4.90;;
14603;SDS011;7388;51.078;13.740;2023-06-14T11:28:07;5.97;;;5.03;;
14603;SDS011;7388;51.078;13.740;2023-06-14T11:30:33;5.23;;;4.73;;
14603;SDS011;7388;51.078;13.740;2023-06-14T11:32:59;6.40;;;5.07;;
14603;SDS011;7388;51.078;13.740;2023-06-14T11:35:25;7.27;;;4.67;;
14603;SDS011;7388;51.078;13.740;2023-06-14T11:37:54;5.60;;;5.00;;
14603;SDS011;7388;51.078;13.740;2023-06-14T11:40:23;5.43;;;4.37;;
14603;SDS011;7388;51.078;13.740;2023-06-14T11:42:49;5.10;;;4.30;;
14603;SDS011;7388;51.078;13.740;2023-06-14T11:45:22;5.83;;;4.50;;
14603;SDS011;7388;51.078;13.740;2023-06-14T11:47:48;4.43;;;3.60;;
14603;SDS011;7388;51.078;13.740;2023-06-14T11:50:14;3.50;;;3.20;;
14603;SDS011;7388;51.078;13.740;2023-06-14T11:52:40;4.97;;;4.47;;
14603;SDS011;7388;51.078;13.740;2023-06-14T11:55:06;4.53;;;3.80;;
14603;SDS011;7388;51.078;13.740;2023-06-14T11:57:36;4.23;;;3.30;;
14603;SDS011;7388;51.078;13.740;2023-06-14T12:00:04;5.87;;;4.17;;
14603;SDS011;7388;51.078;13.740;2023-06-14T12:02:33;5.07;;;3.70;;
14603;SDS011;7388;51.078;13.740;2023-06-14T12:05:03;5.13;;;3.53;;
14603;SDS011;7388;51.078;13.740;2023-06-14T12:07:32;3.63;;;3.33;;
14603;SDS011;7388;51.078;13.740;2023-06-14T12:12:24;4.80;;;4.30;;
14603;SDS011;7388;51.078;13.740;2023-06-14T12:14:50;4.20;;;3.80;;
14603;SDS011;7388;51.078;13.740;2023-06-14T12:17:17;3.53;;;3.23;;
14603;SDS011;7388;51.078;13.740;2023-06-14T12:19:44;4.03;;;3.70;;
14603;SDS011;7388;51.078;13.740;2023-06-14T12:22:11;8.50;;;5.57;;
14603;SDS011;7388;51.078;13.740;2023-06-14T12:24:37;9.23;;;4.33;;
14603;SDS011;7388;51.078;13.740;2023-06-14T12:27:04;4.40;;;4.00;;
14603;SDS011;7388;51.078;13.740;2023-06-14T12:29:31;6.60;;;4.37;;
14603;SDS011;7388;51.078;13.740;2023-06-14T12:31:57;4.60;;;4.20;;
14603;SDS011;7388;51.078;13.740;2023-06-14T12:34:23;5.80;;;5.13;;
14603;SDS011;7388;51.078;13.740;2023-06-14T12:36:53;5.43;;;4.93;;
14603;SDS011;7388;51.078;13.740;2023-06-14T12:39:19;8.07;;;4.83;;
14603;SDS011;7388;51.078;13.740;2023-06-14T12:41:49;5.53;;;4.80;;
14603;SDS011;7388;51.078;13.740;2023-06-14T12:44:15;7.30;;;4.43;;
14603;SDS011;7388;51.078;13.740;2023-06-14T12:46:41;8.57;;;4.90;;
14603;SDS011;7388;51.078;13.740;2023-06-14T12:49:09;5.20;;;4.80;;
14603;SDS011;7388;51.078;13.740;2023-06-14T12:51:38;6.50;;;5.17;;
14603;SDS011;7388;51.078;13.740;2023-06-14T12:54:04;4.40;;;3.70;;
14603;SDS011;7388;51.078;13.740;2023-06-14T12:56:31;8.67;;;4.80;;
14603;SDS011;7388;51.078;13.740;2023-06-14T12:58:57;11.50;;;4.10;;
14603;SDS011;7388;51.078;13.740;2023-06-14T13:01:23;4.30;;;3.93;;
14603;SDS011;7388;51.078;13.740;2023-06-14T13:03:49;4.80;;;4.23;;
14603;SDS011;7388;51.078;13.740;2023-06-14T13:06:16;3.83;;;3.53;;
14603;SDS011;7388;51.078;13.740;2023-06-14T13:08:42;6.97;;;3.57;;
14603;SDS011;7388;51.078;13.740;2023-06-14T13:11:08;3.53;;;3.20;;
14603;SDS011;7388;51.078;13.740;2023-06-14T13:13:34;6.00;;;3.40;;
14603;SDS011;7388;51.078;13.740;2023-06-14T13:16:00;6.60;;;4.13;;
14603;SDS011;7388;51.078;13.740;2023-06-14T13:18:26;6.27;;;4.00;;
14603;SDS011;7388;51.078;13.740;2023-06-14T13:20:52;7.97;;;4.17;;
14603;SDS011;7388;51.078;13.740;2023-06-14T13:23:17;6.43;;;3.57;;
14603;SDS011;7388;51.078;13.740;2023-06-14T13:25:43;8.47;;;4.70;;
14603;SDS011;7388;51.078;13.740;2023-06-14T13:28:10;4.20;;;3.80;;
14603;SDS011;7388;51.078;13.740;2023-06-14T13:30:35;3.97;;;3.63;;
14603;SDS011;7388;51.078;13.740;2023-06-14T13:33:02;5.20;;;4.60;;
14603;SDS011;7388;51.078;13.740;2023-06-14T13:35:28;6.17;;;5.23;;
14603;SDS011;7388;51.078;13.740;2023-06-14T13:37:54;6.60;;;4.10;;
14603;SDS011;7388;51.078;13.740;2023-06-14T13:40:20;4.80;;;3.90;;
14603;SDS011;7388;51.078;13.740;2023-06-14T13:42:46;5.67;;;3.87;;
14603;SDS011;7388;51.078;13.740;2023-06-14T13:45:12;4.90;;;4.13;;
14603;SDS011;7388;51.078;13.740;2023-06-14T13:47:38;4.20;;;3.73;;
14603;SDS011;7388;51.078;13.740;2023-06-14T13:50:04;7.00;;;3.67;;
14603;SDS011;7388;51.078;13.740;2023-06-14T13:52:31;4.20;;;3.33;;
14603;SDS011;7388;51.078;13.740;2023-06-14T13:54:57;3.80;;;3.20;;
14603;SDS011;7388;51.078;13.740;2023-06-14T13:57:22;4.80;;;4.20;;
14603;SDS011;7388;51.078;13.740;2023-06-14T13:59:48;4.23;;;3.27;;
14603;SDS011;7388;51.078;13.740;2023-06-14T14:02:14;6.33;;;3.60;;
14603;SDS011;7388;51.078;13.740;2023-06-14T14:04:41;4.03;;;3.30;;
14603;SDS011;7388;51.078;13.740;2023-06-14T14:07:06;4.10;;;2.73;;
14603;SDS011;7388;51.078;13.740;2023-06-14T14:09:33;6.70;;;3.40;;
14603;SDS011;7388;51.078;13.740;2023-06-14T14:12:00;3.20;;;2.90;;
14603;SDS011;7388;51.078;13.740;2023-06-14T14:14:27;4.13;;;3.73;;
14603;SDS011;7388;51.078;13.740;2023-06-14T14:16:53;6.53;;;3.47;;
14603;SDS011;7388;51.078;13.740;2023-06-14T14:19:20;4.23;;;3.27;;
14603;SDS011;7388;51.078;13.740;2023-06-14T14:21:47;6.00;;;3.43;;
14603;SDS011;7388;51.078;13.740;2023-06-14T14:24:13;4.80;;;2.93;;
14603;SDS011;7388;51.078;13.740;2023-06-14T14:26:38;4.40;;;3.10;;
14603;SDS011;7388;51.078;13.740;2023-06-14T14:29:04;8.10;;;3.80;;
14603;SDS011;7388;51.078;13.740;2023-06-14T14:31:31;4.30;;;3.17;;
14603;SDS011;7388;51.078;13.740;2023-06-14T14:33:56;4.00;;;3.60;;
14603;SDS011;7388;51.078;13.740;2023-06-14T14:36:22;3.57;;;3.23;;
14603;SDS011;7388;51.078;13.740;2023-06-14T14:38:48;4.10;;;3.40;;
14603;SDS011;7388;51.078;13.740;2023-06-14T14:41:14;3.17;;;2.87;;
14603;SDS011;7388;51.078;13.740;2023-06-14T14:43:39;7.13;;;3.97;;
14603;SDS011;7388;51.078;13.740;2023-06-14T14:46:05;3.57;;;3.27;;
14603;SDS011;7388;51.078;13.740;2023-06-14T14:48:31;6.70;;;3.43;;
14603;SDS011;7388;51.078;13.740;2023-06-14T14:50:57;4.73;;;3.50;;
14603;SDS011;7388;51.078;13.740;2023-06-14T14:53:22;6.30;;;3.80;;
14603;SDS011;7388;51.078;13.740;2023-06-14T14:55:48;4.00;;;3.53;;
14603;SDS011;7388;51.078;13.740;2023-06-14T14:58:14;5.37;;;3.63;;
14603;SDS011;7388;51.078;13.740;2023-06-14T15:00:44;5.37;;;3.93;;
14603;SDS011;7388;51.078;13.740;2023-06-14T15:03:10;4.03;;;3.70;;
14603;SDS011;7388;51.078;13.740;2023-06-14T15:05:36;4.70;;;3.90;;